createdAt,value
2022-11-20T00:00:20.873Z,489.92
2022-11-20T00:01:20.879Z,492.10
2022-11-20T00:02:20.877Z,494.67
2022-11-20T00:03:20.856Z,493.20
2022-11-20T00:04:20.858Z,484.92
2022-11-20T00:05:20.845Z,477.25
2022-11-20T00:06:20.793Z,469.83
2022-11-20T00:07:20.894Z,467.84
2022-11-20T00:08:20.783Z,463.27
2022-11-20T00:09:20.950Z,460.70
2022-11-20T00:10:20.755Z,457.53
2022-11-20T00:11:20.747Z,456.59
2022-11-20T00:12:20.754Z,448.57
2022-11-20T00:13:20.764Z,438.79
2022-11-20T00:14:20.717Z,424.22
2022-11-20T00:15:20.766Z,414.69
2022-11-20T00:16:20.711Z,409.33
2022-11-20T00:17:20.714Z,408.07
2022-11-20T00:18:20.697Z,402.38
2022-11-20T00:19:20.907Z,397.57
2022-11-20T00:20:20.677Z,398.04
2022-11-20T00:21:20.651Z,390.79
2022-11-20T00:22:20.670Z,394.73
2022-11-20T00:23:20.634Z,395.44
2022-11-20T00:24:20.667Z,388.05
2022-11-20T00:25:20.858Z,388.73
2022-11-20T00:26:20.617Z,384.68
2022-11-20T00:27:20.614Z,377.16
2022-11-20T00:28:20.592Z,373.29
2022-11-20T00:29:21.619Z,373.29
2022-11-20T00:30:20.585Z,374.57
2022-11-20T00:31:20.556Z,369.91
2022-11-20T00:32:20.559Z,370.75
2022-11-20T00:33:20.533Z,363.73
2022-11-20T00:34:20.538Z,353.89
2022-11-20T00:35:20.515Z,349.35
2022-11-20T00:36:20.509Z,354.27
2022-11-20T00:37:20.493Z,350.47
2022-11-20T00:38:20.499Z,351.98
2022-11-20T00:39:20.747Z,353.89
2022-11-20T00:40:20.468Z,356.20
2022-11-20T00:41:20.475Z,353.51
2022-11-20T00:42:20.444Z,364.14
2022-11-20T00:43:20.462Z,372.43
2022-11-20T00:44:20.453Z,381.80
2022-11-20T00:45:20.421Z,394.73
2022-11-20T00:46:20.426Z,402.14
2022-11-20T00:47:20.423Z,413.40
2022-11-20T00:48:20.386Z,414.95
2022-11-20T00:49:20.627Z,416.77
2022-11-20T00:50:20.401Z,421.00
2022-11-20T00:51:20.390Z,422.07
2022-11-20T00:52:20.354Z,428.33
2022-11-20T00:53:20.351Z,430.55
2022-11-20T00:54:20.324Z,432.51
2022-11-20T00:55:20.322Z,431.39
2022-11-20T00:56:20.315Z,429.71
2022-11-20T00:57:20.329Z,425.86
2022-11-20T00:58:20.331Z,417.30
2022-11-20T00:59:20.505Z,410.59
2022-11-20T01:00:20.274Z,408.07
2022-11-20T01:01:20.390Z,406.57
2022-11-20T01:02:20.274Z,405.83
2022-11-20T01:03:25.591Z,403.85
2022-11-20T01:04:20.275Z,402.14
2022-11-20T01:05:20.230Z,396.62
2022-11-20T01:06:20.234Z,392.63
2022-11-20T01:07:20.261Z,378.47
2022-11-20T01:08:20.203Z,366.59
2022-11-20T01:09:20.683Z,358.55
2022-11-20T01:10:20.166Z,348.23
2022-11-20T01:11:20.182Z,340.97
2022-11-20T01:12:20.192Z,331.29
2022-11-20T01:13:25.367Z,327.64
2022-11-20T01:14:20.172Z,326.98
2022-11-20T01:15:20.166Z,325.36
2022-11-20T01:16:20.115Z,315.92
2022-11-20T01:17:20.138Z,299.98
2022-11-20T01:18:20.096Z,283.09
2022-11-20T01:19:20.474Z,264.32
2022-11-20T01:20:20.096Z,241.30
2022-11-20T01:21:20.085Z,220.76
2022-11-20T01:22:20.091Z,202.57
2022-11-20T01:23:20.070Z,186.61
2022-11-20T01:24:20.047Z,174.63
2022-11-20T01:25:20.033Z,163.15
2022-11-20T01:26:20.026Z,152.80
2022-11-20T01:27:20.020Z,145.45
2022-11-20T01:28:20.014Z,138.31
2022-11-20T01:29:20.414Z,133.11
2022-11-20T01:30:20.008Z,128.48
2022-11-20T01:31:19.971Z,124.81
2022-11-20T01:32:19.988Z,120.47
2022-11-20T01:33:19.985Z,117.24
2022-11-20T01:34:19.967Z,114.58
2022-11-20T01:35:19.961Z,112.33
2022-11-20T01:36:19.989Z,109.66
2022-11-20T01:37:19.910Z,108.24
2022-11-20T01:38:19.914Z,106.09
2022-11-20T01:39:20.387Z,105.09
2022-11-20T01:40:19.899Z,103.84
2022-11-20T01:41:19.876Z,102.50
2022-11-20T01:42:19.873Z,101.19
2022-11-20T01:43:19.858Z,101.25
2022-11-20T01:44:19.861Z,100.57
2022-11-20T01:45:19.863Z,99.97
2022-11-20T01:46:19.827Z,100.15
2022-11-20T01:47:19.837Z,99.61
2022-11-20T01:48:19.832Z,99.02
2022-11-20T01:49:20.147Z,99.37
2022-11-20T01:50:19.807Z,99.19
2022-11-20T01:51:19.800Z,98.84
2022-11-20T01:52:19.766Z,99.14
2022-11-20T01:53:19.759Z,98.49
2022-11-20T01:54:19.758Z,98.37
2022-11-20T01:55:19.866Z,98.26
2022-11-20T01:56:19.729Z,98.49
2022-11-20T01:57:19.723Z,98.20
2022-11-20T01:58:19.732Z,98.43
2022-11-20T01:59:19.986Z,97.62
2022-11-20T02:02:27.549Z,105.49
2022-11-20T02:03:28.529Z,102.43
2022-11-20T02:04:28.518Z,101.87
2022-11-20T02:05:28.498Z,101.56
2022-11-20T02:06:28.540Z,101.37
2022-11-20T02:07:28.554Z,100.64
2022-11-20T02:08:28.461Z,100.82
2022-11-20T02:09:28.467Z,100.82
2022-11-20T02:10:28.438Z,100.76
2022-11-20T02:11:28.424Z,100.15
2022-11-20T02:12:28.430Z,100.57
2022-11-20T02:13:28.425Z,100.03
2022-11-20T02:14:28.438Z,101.25
2022-11-20T02:15:30.407Z,101.19
2022-11-20T02:16:28.409Z,101.74
2022-11-20T02:17:28.409Z,101.25
2022-11-20T02:18:28.397Z,101.93
2022-11-20T02:19:28.365Z,101.87
2022-11-20T02:20:28.370Z,101.68
2022-11-20T02:21:28.392Z,101.81
2022-11-20T02:22:28.357Z,102.69
2022-11-20T02:23:28.453Z,102.81
2022-11-20T02:24:28.307Z,103.00
2022-11-20T02:25:28.301Z,103.65
2022-11-20T02:26:28.285Z,103.07
2022-11-20T02:27:28.286Z,103.20
2022-11-20T02:28:28.295Z,103.39
2022-11-20T02:29:28.294Z,103.97
2022-11-20T02:30:28.252Z,103.84
2022-11-20T02:31:28.238Z,104.17
2022-11-20T02:32:34.777Z,104.69
2022-11-20T02:33:28.224Z,105.15
2022-11-20T02:34:28.237Z,105.15
2022-11-20T02:35:28.209Z,105.42
2022-11-20T02:36:28.209Z,105.69
2022-11-20T02:37:28.228Z,104.82
2022-11-20T02:38:28.179Z,105.22
2022-11-20T02:39:28.154Z,104.76
2022-11-20T02:40:28.196Z,105.76
2022-11-20T02:41:28.157Z,104.89
2022-11-20T02:42:28.130Z,104.49
2022-11-20T02:43:28.131Z,104.30
2022-11-20T02:44:28.143Z,104.69
2022-11-20T02:45:28.144Z,104.04
2022-11-20T02:46:28.145Z,104.23
2022-11-20T02:47:28.110Z,103.58
2022-11-20T02:48:30.208Z,103.20
2022-11-20T02:49:28.122Z,103.00
2022-11-20T02:50:28.058Z,103.26
2022-11-20T02:51:28.107Z,102.31
2022-11-20T02:52:28.075Z,101.74
2022-11-20T02:53:28.028Z,101.56
2022-11-20T02:54:28.022Z,101.62
2022-11-20T02:55:28.040Z,102.06
2022-11-20T02:56:28.008Z,101.74
2022-11-20T02:57:28.020Z,102.18
2022-11-20T02:58:28.015Z,102.43
2022-11-20T02:59:27.994Z,103.45
2022-11-20T03:00:27.975Z,103.78
2022-11-20T03:01:28.173Z,104.49
2022-11-20T03:02:27.983Z,105.02
2022-11-20T03:03:27.925Z,105.29
2022-11-20T03:04:27.929Z,105.62
2022-11-20T03:05:27.925Z,105.22
2022-11-20T03:06:27.917Z,105.22
2022-11-20T03:07:28.055Z,105.15
2022-11-20T03:08:27.880Z,105.35
2022-11-20T03:09:27.868Z,105.02
2022-11-20T03:10:27.876Z,104.96
2022-11-20T03:11:27.864Z,105.49
2022-11-20T03:12:27.884Z,105.62
2022-11-20T03:13:27.836Z,104.62
2022-11-20T03:14:27.840Z,105.15
2022-11-20T03:15:27.827Z,104.43
2022-11-20T03:16:27.846Z,104.76
2022-11-20T03:17:27.831Z,104.43
2022-11-20T03:18:27.791Z,104.49
2022-11-20T03:19:27.776Z,104.17
2022-11-20T03:20:27.764Z,104.10
2022-11-20T03:21:27.773Z,103.97
2022-11-20T03:22:27.773Z,103.78
2022-11-20T03:23:27.739Z,103.13
2022-11-20T03:24:27.744Z,103.32
2022-11-20T03:25:27.752Z,103.39
2022-11-20T03:26:27.738Z,104.10
2022-11-20T03:27:27.722Z,103.91
2022-11-20T03:28:27.689Z,103.13
2022-11-20T03:29:27.691Z,103.78
2022-11-20T03:30:30.719Z,103.84
2022-11-20T03:31:27.701Z,103.97
2022-11-20T03:32:27.653Z,104.23
2022-11-20T03:33:27.650Z,103.97
2022-11-20T03:34:27.644Z,103.97
2022-11-20T03:35:27.619Z,104.10
2022-11-20T03:36:27.665Z,104.49
2022-11-20T03:37:27.661Z,104.82
2022-11-20T03:38:27.612Z,105.02
2022-11-20T03:39:27.584Z,105.15
2022-11-20T03:40:27.595Z,106.57
2022-11-20T03:41:27.616Z,107.05
2022-11-20T03:42:27.603Z,106.57
2022-11-20T03:43:27.651Z,108.09
2022-11-20T03:44:27.578Z,108.66
2022-11-20T03:45:27.521Z,109.09
2022-11-20T03:46:27.524Z,110.32
2022-11-20T03:47:27.503Z,110.61
2022-11-20T03:48:27.543Z,111.80
2022-11-20T03:49:27.517Z,111.58
2022-11-20T03:50:27.496Z,111.35
2022-11-20T03:51:27.486Z,112.41
2022-11-20T03:52:27.464Z,112.56
2022-11-20T03:53:27.465Z,112.10
2022-11-20T03:54:27.475Z,112.25
2022-11-20T03:55:27.468Z,112.10
2022-11-20T03:56:27.431Z,112.33
2022-11-20T03:57:27.449Z,112.56
2022-11-20T03:58:27.408Z,112.79
2022-11-20T03:59:27.409Z,112.03
2022-11-20T04:00:27.388Z,111.35
2022-11-20T04:01:27.466Z,111.13
2022-11-20T04:02:27.385Z,110.61
2022-11-20T04:03:27.376Z,109.74
2022-11-20T04:04:27.357Z,108.94
2022-11-20T04:05:27.373Z,109.02
2022-11-20T04:06:27.323Z,108.87
2022-11-20T04:07:27.431Z,109.02
2022-11-20T04:08:27.314Z,109.09
2022-11-20T04:09:27.303Z,108.52
2022-11-20T04:10:27.291Z,108.31
2022-11-20T04:11:27.275Z,108.66
2022-11-20T04:12:27.296Z,108.24
2022-11-20T04:13:27.265Z,108.17
2022-11-20T04:14:27.251Z,107.88
2022-11-20T04:15:27.239Z,109.16
2022-11-20T04:16:27.249Z,108.31
2022-11-20T04:17:27.232Z,107.61
2022-11-20T04:18:27.216Z,107.95
2022-11-20T04:19:27.200Z,108.24
2022-11-20T04:20:27.215Z,107.81
2022-11-20T04:21:27.180Z,108.02
2022-11-20T04:22:27.177Z,109.02
2022-11-20T04:23:28.856Z,108.02
2022-11-20T04:24:27.169Z,108.09
2022-11-20T04:25:27.143Z,107.95
2022-11-20T04:26:27.163Z,107.81
2022-11-20T04:27:27.135Z,108.73
2022-11-20T04:28:27.138Z,108.31
2022-11-20T04:29:27.119Z,109.16
2022-11-20T04:30:27.109Z,111.06
2022-11-20T04:31:27.112Z,110.91
2022-11-20T04:32:27.084Z,112.41
2022-11-20T04:33:28.994Z,114.18
2022-11-20T04:34:27.063Z,116.10
2022-11-20T04:35:27.052Z,118.41
2022-11-20T04:36:27.075Z,119.35
2022-11-20T04:37:27.038Z,122.33
2022-11-20T04:38:27.061Z,124.91
2022-11-20T04:39:27.029Z,126.71
2022-11-20T04:40:27.009Z,128.48
2022-11-20T04:41:27.014Z,128.88
2022-11-20T04:42:26.987Z,131.42
2022-11-20T04:43:27.001Z,131.11
2022-11-20T04:44:27.005Z,132.57
2022-11-20T04:45:26.952Z,132.89
2022-11-20T04:46:26.970Z,132.36
2022-11-20T04:47:26.931Z,133.21
2022-11-20T04:48:26.934Z,132.26
2022-11-20T04:49:26.991Z,132.05
2022-11-20T04:50:26.916Z,131.11
2022-11-20T04:51:26.962Z,128.78
2022-11-20T04:52:26.899Z,127.10
2022-11-20T04:53:26.898Z,125.95
2022-11-20T04:54:26.910Z,124.07
2022-11-20T04:55:26.878Z,122.60
2022-11-20T04:56:26.858Z,121.35
2022-11-20T04:57:26.846Z,119.95
2022-11-20T04:58:26.842Z,119.09
2022-11-20T04:59:26.822Z,117.91
2022-11-20T05:00:26.836Z,117.00
2022-11-20T05:01:26.927Z,115.61
2022-11-20T05:02:26.807Z,115.53
2022-11-20T05:03:26.788Z,114.81
2022-11-20T05:04:26.797Z,114.50
2022-11-20T05:05:26.785Z,114.26
2022-11-20T05:06:26.767Z,114.50
2022-11-20T05:07:26.816Z,114.10
2022-11-20T05:08:26.757Z,113.40
2022-11-20T05:09:26.774Z,112.79
2022-11-20T05:10:26.717Z,113.33
2022-11-20T05:11:26.745Z,113.40
2022-11-20T05:12:26.730Z,113.40
2022-11-20T05:13:26.693Z,113.40
2022-11-20T05:14:26.682Z,113.25
2022-11-20T05:15:26.668Z,113.17
2022-11-20T05:16:26.665Z,113.40
2022-11-20T05:17:26.664Z,113.10
2022-11-20T05:18:26.644Z,112.86
2022-11-20T05:19:26.629Z,113.17
2022-11-20T05:20:26.629Z,113.17
2022-11-20T05:21:26.654Z,112.94
2022-11-20T05:22:26.607Z,113.02
2022-11-20T05:23:26.634Z,113.40
2022-11-20T05:24:26.582Z,114.03
2022-11-20T05:25:26.583Z,114.42
2022-11-20T05:26:26.606Z,114.26
2022-11-20T05:27:26.593Z,115.37
2022-11-20T05:28:26.569Z,115.29
2022-11-20T05:29:26.618Z,116.34
2022-11-20T05:30:26.558Z,117.91
2022-11-20T05:31:27.934Z,119.86
2022-11-20T05:32:26.510Z,122.42
2022-11-20T05:33:26.502Z,125.95
2022-11-20T05:34:26.538Z,129.28
2022-11-20T05:35:26.479Z,135.05
2022-11-20T05:36:26.480Z,139.94
2022-11-20T05:37:26.476Z,143.81
2022-11-20T05:38:26.449Z,145.45
2022-11-20T05:39:26.477Z,145.83
2022-11-20T05:40:26.447Z,146.73
2022-11-20T05:41:26.491Z,146.48
2022-11-20T05:42:26.415Z,147.51
2022-11-20T05:43:26.406Z,146.35
2022-11-20T05:44:26.416Z,146.35
2022-11-20T05:45:26.416Z,147.65
2022-11-20T05:46:28.963Z,147.78
2022-11-20T05:47:26.388Z,148.17
2022-11-20T05:48:26.385Z,148.17
2022-11-20T05:49:26.347Z,145.71
2022-11-20T05:50:26.358Z,144.31
2022-11-20T05:51:26.338Z,144.31
2022-11-20T05:52:26.340Z,142.58
2022-11-20T05:53:27.743Z,140.06
2022-11-20T05:54:26.315Z,138.43
2022-11-20T05:55:26.313Z,137.06
2022-11-20T05:56:26.320Z,136.38
2022-11-20T05:57:26.279Z,135.49
2022-11-20T05:58:26.256Z,133.96
2022-11-20T05:59:26.222Z,133.53
2022-11-20T06:00:26.190Z,132.68
2022-11-20T06:01:26.180Z,131.01
2022-11-20T06:02:26.327Z,130.29
2022-11-20T06:03:26.212Z,128.98
2022-11-20T06:04:26.163Z,127.59
2022-11-20T06:05:26.161Z,125.95
2022-11-20T06:06:26.145Z,124.91
2022-11-20T06:07:26.149Z,124.25
2022-11-20T06:08:26.111Z,124.07
2022-11-20T06:09:26.150Z,123.24
2022-11-20T06:10:26.102Z,122.88
2022-11-20T06:11:26.086Z,123.42
2022-11-20T06:12:26.090Z,122.51
2022-11-20T06:13:26.064Z,123.42
2022-11-20T06:14:26.062Z,121.88
2022-11-20T06:15:26.043Z,122.06
2022-11-20T06:16:26.044Z,121.00
2022-11-20T06:17:26.035Z,121.26
2022-11-20T06:18:26.039Z,122.15
2022-11-20T06:19:26.030Z,121.17
2022-11-20T06:20:26.011Z,119.35
2022-11-20T06:21:25.997Z,120.04
2022-11-20T06:22:26.006Z,119.35
2022-11-20T06:23:25.990Z,119.43
2022-11-20T06:24:25.974Z,119.78
2022-11-20T06:25:25.971Z,119.95
2022-11-20T06:26:25.949Z,120.82
2022-11-20T06:27:25.953Z,120.56
2022-11-20T06:28:25.982Z,120.91
2022-11-20T06:29:28.846Z,122.51
2022-11-20T06:30:25.905Z,121.79
2022-11-20T06:31:25.917Z,122.96
2022-11-20T06:32:25.900Z,123.51
2022-11-20T06:33:25.874Z,124.16
2022-11-20T06:34:25.866Z,124.35
2022-11-20T06:35:25.871Z,125.95
2022-11-20T06:36:25.894Z,126.52
2022-11-20T06:37:25.838Z,127.00
2022-11-20T06:38:25.891Z,127.20
2022-11-20T06:39:25.875Z,128.58
2022-11-20T06:40:25.808Z,129.08
2022-11-20T06:41:25.810Z,129.18
2022-11-20T06:42:25.814Z,129.18
2022-11-20T06:43:25.816Z,129.58
2022-11-20T06:44:25.789Z,129.08
2022-11-20T06:45:25.766Z,130.09
2022-11-20T06:46:25.755Z,129.58
2022-11-20T06:47:25.776Z,129.58
2022-11-20T06:48:25.729Z,129.38
2022-11-20T06:49:25.727Z,130.09
2022-11-20T06:50:25.747Z,130.39
2022-11-20T06:51:25.702Z,131.01
2022-11-20T06:52:25.709Z,130.80
2022-11-20T06:53:25.718Z,129.88
2022-11-20T06:54:25.674Z,129.68
2022-11-20T06:55:25.669Z,129.58
2022-11-20T06:56:25.655Z,129.88
2022-11-20T06:57:25.689Z,129.48
2022-11-20T06:58:25.655Z,130.09
2022-11-20T06:59:25.628Z,129.88
2022-11-20T07:00:25.649Z,129.28
2022-11-20T07:01:25.665Z,128.78
2022-11-20T07:02:25.604Z,128.38
2022-11-20T07:03:25.608Z,129.38
2022-11-20T07:04:25.576Z,128.48
2022-11-20T07:05:25.624Z,130.09
2022-11-20T07:06:25.701Z,129.88
2022-11-20T07:07:25.600Z,129.48
2022-11-20T07:08:25.541Z,130.19
2022-11-20T07:09:25.745Z,130.60
2022-11-20T07:10:25.525Z,130.60
2022-11-20T07:11:25.519Z,130.29
2022-11-20T07:12:25.549Z,130.39
2022-11-20T07:13:25.501Z,129.98
2022-11-20T07:14:25.506Z,129.58
2022-11-20T07:15:25.503Z,128.78
2022-11-20T07:16:25.489Z,128.58
2022-11-20T07:17:25.462Z,129.68
2022-11-20T07:18:25.458Z,129.68
2022-11-20T07:19:25.431Z,128.58
2022-11-20T07:20:25.462Z,128.38
2022-11-20T07:21:25.478Z,127.79
2022-11-20T07:22:25.427Z,127.00
2022-11-20T07:23:25.411Z,127.20
2022-11-20T07:24:25.414Z,127.00
2022-11-20T07:25:25.373Z,126.81
2022-11-20T07:26:25.375Z,127.10
2022-11-20T07:27:25.358Z,127.59
2022-11-20T07:28:25.388Z,127.20
2022-11-20T07:29:25.352Z,128.08
2022-11-20T07:30:25.330Z,128.48
2022-11-20T07:31:25.317Z,128.38
2022-11-20T07:32:25.317Z,129.08
2022-11-20T07:33:25.321Z,129.58
2022-11-20T07:34:25.303Z,129.98
2022-11-20T07:35:25.287Z,130.19
2022-11-20T07:36:25.267Z,130.29
2022-11-20T07:37:25.275Z,132.57
2022-11-20T07:38:25.255Z,133.00
2022-11-20T07:39:25.274Z,132.89
2022-11-20T07:40:25.257Z,134.62
2022-11-20T07:41:25.240Z,135.38
2022-11-20T07:42:25.209Z,135.71
2022-11-20T07:43:25.198Z,136.27
2022-11-20T07:44:25.219Z,138.31
2022-11-20T07:45:25.198Z,139.35
2022-11-20T07:46:25.188Z,139.71
2022-11-20T07:47:25.165Z,141.13
2022-11-20T07:48:25.165Z,140.06
2022-11-20T07:49:25.162Z,140.29
2022-11-20T07:50:25.143Z,141.13
2022-11-20T07:51:25.123Z,142.34
2022-11-20T07:52:25.123Z,142.21
2022-11-20T07:53:25.133Z,140.77
2022-11-20T07:54:25.146Z,140.53
2022-11-20T07:55:25.090Z,140.41
2022-11-20T07:56:25.088Z,140.65
2022-11-20T07:57:28.296Z,142.34
2022-11-20T07:58:25.078Z,140.77
2022-11-20T07:59:25.077Z,140.65
2022-11-20T08:00:25.041Z,140.89
2022-11-20T08:01:25.147Z,140.77
2022-11-20T08:02:25.018Z,140.89
2022-11-20T08:03:25.846Z,141.49
2022-11-20T08:04:24.999Z,141.25
2022-11-20T08:05:24.992Z,141.97
2022-11-20T08:06:25.015Z,143.44
2022-11-20T08:07:25.022Z,145.07
2022-11-20T08:08:24.977Z,145.96
2022-11-20T08:09:24.981Z,147.25
2022-11-20T08:10:25.084Z,149.51
2022-11-20T08:11:24.925Z,151.96
2022-11-20T08:12:24.931Z,153.51
2022-11-20T08:13:24.937Z,156.40
2022-11-20T08:14:24.911Z,156.99
2022-11-20T08:15:24.893Z,158.94
2022-11-20T08:16:24.894Z,159.40
2022-11-20T08:17:24.875Z,160.78
2022-11-20T08:18:33.033Z,161.25
2022-11-20T08:19:25.133Z,164.60
2022-11-20T08:20:24.988Z,165.09
2022-11-20T08:21:24.833Z,167.59
2022-11-20T08:22:24.828Z,168.44
2022-11-20T08:23:24.855Z,168.95
2022-11-20T08:24:24.846Z,171.21
2022-11-20T08:25:24.792Z,172.46
2022-11-20T08:26:24.804Z,173.90
2022-11-20T08:27:24.776Z,173.36
2022-11-20T08:28:24.762Z,173.54
2022-11-20T08:29:24.924Z,175.74
2022-11-20T08:30:24.899Z,176.49
2022-11-20T08:31:24.757Z,175.55
2022-11-20T08:32:24.743Z,175.93
2022-11-20T08:33:24.757Z,175.18
2022-11-20T08:34:24.705Z,174.82
2022-11-20T08:35:24.710Z,175.55
2022-11-20T08:36:24.695Z,175.18
2022-11-20T08:37:24.681Z,173.54
2022-11-20T08:38:24.672Z,175.00
2022-11-20T08:39:24.823Z,173.90
2022-11-20T08:40:24.758Z,173.72
2022-11-20T08:41:24.649Z,174.82
2022-11-20T08:42:24.656Z,173.90
2022-11-20T08:43:24.630Z,174.08
2022-11-20T08:44:24.609Z,173.72
2022-11-20T08:45:26.464Z,173.90
2022-11-20T08:46:24.632Z,175.74
2022-11-20T08:47:24.580Z,178.96
2022-11-20T08:48:24.568Z,181.49
2022-11-20T08:49:24.788Z,183.09
2022-11-20T08:50:24.603Z,184.52
2022-11-20T08:51:24.541Z,186.17
2022-11-20T08:52:24.563Z,186.38
2022-11-20T08:53:24.585Z,185.24
2022-11-20T08:54:24.512Z,185.24
2022-11-20T08:55:24.506Z,185.75
2022-11-20T08:56:24.527Z,185.13
2022-11-20T08:57:24.556Z,186.17
2022-11-20T08:58:24.478Z,185.96
2022-11-20T08:59:43.816Z,184.61
2022-11-20T09:00:24.467Z,185.66
2022-11-20T09:01:24.847Z,186.93
2022-11-20T09:02:24.468Z,186.29
2022-11-20T09:03:28.589Z,185.76
2022-11-20T09:04:24.429Z,187.68
2022-11-20T09:05:24.428Z,186.08
2022-11-20T09:06:24.392Z,186.40
2022-11-20T09:07:24.405Z,187.57
2022-11-20T09:08:24.398Z,186.29
2022-11-20T09:09:24.698Z,187.25
2022-11-20T09:10:25.188Z,186.93
2022-11-20T09:11:24.535Z,189.09
2022-11-20T09:12:24.355Z,189.20
2022-11-20T09:13:24.327Z,188.88
2022-11-20T09:14:24.333Z,188.11
2022-11-20T09:15:24.327Z,190.64
2022-11-20T09:16:24.337Z,189.86
2022-11-20T09:17:24.303Z,189.86
2022-11-20T09:18:24.306Z,192.21
2022-11-20T09:19:39.520Z,200.21
2022-11-20T09:20:24.267Z,204.98
2022-11-20T09:21:24.357Z,209.18
2022-11-20T09:22:24.236Z,218.55
2022-11-20T09:23:24.247Z,232.54
2022-11-20T09:24:24.220Z,243.45
2022-11-20T09:25:24.246Z,259.49
2022-11-20T09:26:24.206Z,273.39
2022-11-20T09:27:24.220Z,284.57
2022-11-20T09:28:24.183Z,293.25
2022-11-20T09:29:24.393Z,307.02
2022-11-20T09:30:24.161Z,326.98
2022-11-20T09:31:24.152Z,344.20
2022-11-20T09:32:24.147Z,350.85
2022-11-20T09:33:23.162Z,347.12
2022-11-20T09:34:24.140Z,346.39
2022-11-20T09:35:24.125Z,353.51
2022-11-20T09:36:24.167Z,356.98
2022-11-20T09:37:24.104Z,367.41
2022-11-20T09:38:24.085Z,365.77
2022-11-20T09:39:24.506Z,366.18
2022-11-20T09:40:24.090Z,369.07
2022-11-20T09:41:24.093Z,365.36
2022-11-20T09:42:24.060Z,355.04
2022-11-20T09:43:24.031Z,351.23
2022-11-20T09:44:24.033Z,350.10
2022-11-20T09:45:24.078Z,348.60
2022-11-20T09:46:24.009Z,348.60
2022-11-20T09:47:24.001Z,356.20
2022-11-20T09:48:23.995Z,367.83
2022-11-20T09:49:27.670Z,378.47
2022-11-20T09:50:23.976Z,386.92
2022-11-20T09:51:24.009Z,387.37
2022-11-20T09:52:23.954Z,397.57
2022-11-20T09:53:23.949Z,401.65
2022-11-20T09:54:23.936Z,402.38
2022-11-20T09:55:23.935Z,398.28
2022-11-20T09:56:23.910Z,401.17
2022-11-20T09:57:23.900Z,411.35
2022-11-20T09:58:23.892Z,420.73
2022-11-20T09:59:24.120Z,442.30
2022-11-20T10:00:23.869Z,459.75
2022-11-20T10:01:23.960Z,475.89
2022-11-20T10:02:23.856Z,489.56
2022-11-20T10:03:23.884Z,498.38
2022-11-20T10:04:23.848Z,501.76
2022-11-20T10:05:23.879Z,503.67
2022-11-20T10:06:23.810Z,520.64
2022-11-20T10:07:32.723Z,538.36
2022-11-20T10:08:23.829Z,547.68
2022-11-20T10:09:24.225Z,557.80
2022-11-20T10:10:23.786Z,558.27
2022-11-20T10:11:23.797Z,561.09
2022-11-20T10:12:23.750Z,583.26
2022-11-20T10:13:23.750Z,594.22
2022-11-20T10:14:23.745Z,605.59
2022-11-20T10:15:23.732Z,623.79
2022-11-20T10:16:23.715Z,635.73
2022-11-20T10:17:23.721Z,648.13
2022-11-20T10:18:23.710Z,641.87
2022-11-20T10:19:24.011Z,638.17
2022-11-20T10:20:23.692Z,641.87
2022-11-20T10:21:23.667Z,638.17
2022-11-20T10:22:23.656Z,634.51
2022-11-20T10:23:26.043Z,631.50
2022-11-20T10:24:23.688Z,626.14
2022-11-20T10:25:23.751Z,617.41
2022-11-20T10:26:23.609Z,603.94
2022-11-20T10:27:23.610Z,611.73
2022-11-20T10:28:23.592Z,613.99
2022-11-20T10:29:23.948Z,608.92
2022-11-20T10:30:23.603Z,592.63
2022-11-20T10:31:23.567Z,558.73
2022-11-20T10:32:23.568Z,547.23
2022-11-20T10:33:23.555Z,531.89
2022-11-20T10:34:23.593Z,522.69
2022-11-20T10:35:23.519Z,521.46
2022-11-20T10:36:23.530Z,534.89
2022-11-20T10:37:23.515Z,548.58
2022-11-20T10:38:23.513Z,552.23
2022-11-20T10:39:24.023Z,554.07
2022-11-20T10:40:23.537Z,555.93
2022-11-20T10:41:23.472Z,571.72
2022-11-20T10:42:23.485Z,570.24
2022-11-20T10:43:23.450Z,555.00
2022-11-20T10:44:23.742Z,558.73
2022-11-20T10:45:23.469Z,560.62
2022-11-20T10:46:23.520Z,556.39
2022-11-20T10:47:23.419Z,549.04
2022-11-20T10:48:23.435Z,547.23
2022-11-20T10:49:23.642Z,532.32
2022-11-20T10:50:23.387Z,519.82
2022-11-20T10:51:23.400Z,506.74
2022-11-20T10:52:23.352Z,481.75
2022-11-20T10:53:23.439Z,468.83
2022-11-20T10:54:23.344Z,441.12
2022-11-20T10:55:23.435Z,410.34
2022-11-20T10:56:23.327Z,394.73
2022-11-20T10:57:23.318Z,384.90
2022-11-20T10:58:23.320Z,375.86
2022-11-20T10:59:23.659Z,367.83
2022-11-20T11:00:23.322Z,344.20
2022-11-20T11:01:23.305Z,326.01
2022-11-20T11:02:23.333Z,322.47
2022-11-20T11:03:23.294Z,326.98
2022-11-20T11:04:23.242Z,326.33
2022-11-20T11:05:23.230Z,330.96
2022-11-20T11:06:23.213Z,327.97
2022-11-20T11:07:23.314Z,309.93
2022-11-20T11:08:23.201Z,306.73
2022-11-20T11:09:23.704Z,319.63
2022-11-20T11:10:23.184Z,319.32
2022-11-20T11:11:23.197Z,304.73
2022-11-20T11:12:23.163Z,283.83
2022-11-20T11:13:23.166Z,271.57
2022-11-20T11:14:23.144Z,279.46
2022-11-20T11:15:23.123Z,277.56
2022-11-20T11:16:23.139Z,272.25
2022-11-20T11:17:23.178Z,273.61
2022-11-20T11:18:23.363Z,275.23
2022-11-20T11:19:23.284Z,266.91
2022-11-20T11:20:23.559Z,252.09
2022-11-20T11:21:23.683Z,230.09
2022-11-20T11:22:23.631Z,215.95
2022-11-20T11:23:23.072Z,205.50
2022-11-20T11:24:41.167Z,195.77
2022-11-20T11:25:23.031Z,191.20
2022-11-20T11:26:23.123Z,192.32
2022-11-20T11:27:23.005Z,185.13
2022-11-20T11:28:23.052Z,178.96
2022-11-20T11:29:23.132Z,171.57
2022-11-20T11:30:22.980Z,166.75
2022-11-20T11:31:22.991Z,162.35
2022-11-20T11:32:22.961Z,156.84
2022-11-20T11:33:22.989Z,151.96
2022-11-20T11:34:22.949Z,149.91
2022-11-20T11:35:22.952Z,146.09
2022-11-20T11:36:22.936Z,144.31
2022-11-20T11:37:22.944Z,143.07
2022-11-20T11:38:22.897Z,142.83
2022-11-20T11:39:22.991Z,144.57
2022-11-20T11:40:24.431Z,145.71
2022-11-20T11:41:22.896Z,142.83
2022-11-20T11:42:22.867Z,141.13
2022-11-20T11:43:22.863Z,145.71
2022-11-20T11:44:22.842Z,145.96
2022-11-20T11:45:22.837Z,151.83
2022-11-20T11:46:22.868Z,158.94
2022-11-20T11:47:22.836Z,166.75
2022-11-20T11:48:22.812Z,165.92
2022-11-20T11:49:23.219Z,167.93
2022-11-20T11:50:22.800Z,178.76
2022-11-20T11:51:22.791Z,192.89
2022-11-20T11:52:22.773Z,218.70
2022-11-20T11:53:22.811Z,238.31
2022-11-20T11:54:22.754Z,253.85
2022-11-20T11:55:22.740Z,265.61
2022-11-20T11:56:22.725Z,270.22
2022-11-20T11:57:22.730Z,280.90
2022-11-20T11:58:22.713Z,291.94
2022-11-20T11:59:22.962Z,302.20
2022-11-20T12:00:22.688Z,310.52
2022-11-20T12:01:22.700Z,313.80
2022-11-20T12:02:22.707Z,319.94
2022-11-20T12:03:22.708Z,322.15
2022-11-20T12:04:22.650Z,331.96
2022-11-20T12:05:22.635Z,329.29
2022-11-20T12:06:22.701Z,322.47
2022-11-20T12:07:45.658Z,336.06
2022-11-20T12:08:22.648Z,337.10
2022-11-20T12:09:22.826Z,338.15
2022-11-20T12:10:22.605Z,347.86
2022-11-20T12:11:22.576Z,355.43
2022-11-20T12:12:22.577Z,365.36
2022-11-20T12:13:22.560Z,376.29
2022-11-20T12:14:22.550Z,374.57
2022-11-20T12:15:22.560Z,369.49
2022-11-20T12:16:22.550Z,378.47
2022-11-20T12:17:22.517Z,385.35
2022-11-20T12:18:22.523Z,398.28
2022-11-20T12:19:22.842Z,403.36
2022-11-20T12:20:22.482Z,410.59
2022-11-20T12:21:22.519Z,421.00
2022-11-20T12:22:22.464Z,434.49
2022-11-20T12:23:22.456Z,437.93
2022-11-20T12:24:22.465Z,439.38
2022-11-20T12:25:22.437Z,437.64
2022-11-20T12:26:22.438Z,432.23
2022-11-20T12:27:22.433Z,427.50
2022-11-20T12:28:22.404Z,431.39
2022-11-20T12:29:22.702Z,432.23
2022-11-20T12:30:22.467Z,438.79